createdAt,value
2022-10-13T00:01:18.429Z,69.59
2022-10-13T00:03:46.988Z,69.98
2022-10-13T00:06:18.636Z,69.78
2022-10-13T00:08:48.987Z,69.78
2022-10-13T00:11:22.676Z,69.44
2022-10-13T00:13:50.615Z,69.20
2022-10-13T00:16:20.516Z,68.94
2022-10-13T00:18:47.151Z,69.26
2022-10-13T00:21:21.372Z,69.42
2022-10-13T00:23:48.244Z,68.92
2022-10-13T00:26:24.934Z,68.56
2022-10-13T00:28:52.768Z,69.16
2022-10-13T00:31:26.555Z,68.33
2022-10-13T00:33:53.498Z,68.30
2022-10-13T00:36:22.087Z,67.68
2022-10-13T00:38:48.729Z,68.05
2022-10-13T00:41:15.572Z,68.97
2022-10-13T00:43:50.104Z,69.52
2022-10-13T00:46:16.943Z,70.21
2022-10-13T00:48:46.851Z,69.20
2022-10-13T00:51:17.926Z,69.13
2022-10-13T00:53:47.855Z,69.61
2022-10-13T00:56:19.730Z,68.86
2022-10-13T00:58:48.663Z,69.13
2022-10-13T01:01:15.313Z,69.73
2022-10-13T01:03:42.243Z,69.46
2022-10-13T01:06:09.598Z,69.13
2022-10-13T01:08:36.279Z,68.97
2022-10-13T01:11:22.666Z,69.13
2022-10-13T01:14:11.040Z,69.19
2022-10-13T01:17:01.857Z,69.64
2022-10-13T01:20:15.200Z,70.22
2022-10-13T01:23:12.299Z,70.59
2022-10-13T01:26:09.610Z,71.00
2022-10-13T01:29:06.776Z,70.37
2022-10-13T01:32:02.155Z,70.06
2022-10-13T01:34:52.896Z,69.71
2022-10-13T01:37:49.271Z,69.81
2022-10-13T01:40:25.454Z,70.74
2022-10-13T01:43:16.641Z,70.67
2022-10-13T01:45:53.790Z,70.33
2022-10-13T01:48:20.419Z,70.60
2022-10-13T01:50:48.556Z,69.94
2022-10-13T01:53:18.243Z,69.66
2022-10-13T01:55:54.749Z,69.83
2022-10-13T01:58:23.407Z,69.99
2022-10-13T02:01:22.230Z,70.06
2022-10-13T02:04:34.306Z,70.38
2022-10-13T02:07:23.638Z,70.10
2022-10-13T02:10:15.450Z,70.86
2022-10-13T02:12:54.984Z,70.94
2022-10-13T02:15:34.080Z,70.53
2022-10-13T02:18:03.804Z,70.92
2022-10-13T02:20:31.822Z,70.87
2022-10-13T02:23:07.149Z,70.88
2022-10-13T02:25:35.582Z,70.50
2022-10-13T02:28:03.046Z,69.98
2022-10-13T02:30:33.045Z,70.07
2022-10-13T02:33:01.494Z,69.80
2022-10-13T02:35:30.917Z,70.69
2022-10-13T02:37:57.375Z,70.83
2022-10-13T02:40:24.562Z,70.77
2022-10-13T02:42:51.102Z,71.09
2022-10-13T02:45:17.530Z,71.03
2022-10-13T02:47:44.146Z,70.67
2022-10-13T02:50:11.335Z,71.01
2022-10-13T02:52:38.087Z,70.10
2022-10-13T02:55:05.657Z,69.42
2022-10-13T02:57:32.350Z,69.45
2022-10-13T02:59:58.893Z,69.99
2022-10-13T03:02:28.241Z,70.36
2022-10-13T03:04:54.860Z,70.23
2022-10-13T03:07:21.554Z,69.83
2022-10-13T03:09:48.081Z,69.58
2022-10-13T03:12:14.579Z,69.17
2022-10-13T03:14:41.045Z,68.75
2022-10-13T03:17:12.448Z,68.60
2022-10-13T03:19:39.891Z,68.91
2022-10-13T03:22:06.402Z,69.21
2022-10-13T03:24:32.844Z,68.97
2022-10-13T03:26:59.280Z,68.95
2022-10-13T03:29:26.037Z,68.69
2022-10-13T03:31:52.518Z,68.52
2022-10-13T03:34:20.196Z,68.41
2022-10-13T03:36:46.836Z,68.58
2022-10-13T03:39:13.692Z,68.56
2022-10-13T03:41:40.388Z,69.14
2022-10-13T03:44:07.517Z,69.68
2022-10-13T03:46:34.299Z,69.61
2022-10-13T03:49:00.879Z,69.74
2022-10-13T03:51:27.389Z,69.49
2022-10-13T03:53:54.253Z,69.31
2022-10-13T03:56:27.022Z,69.13
2022-10-13T03:58:57.495Z,68.59
2022-10-13T04:01:28.397Z,68.43
2022-10-13T04:03:56.371Z,68.59
2022-10-13T04:06:25.399Z,67.97
2022-10-13T04:08:52.359Z,68.16
2022-10-13T04:11:19.855Z,68.25
2022-10-13T04:13:46.418Z,68.63
2022-10-13T04:16:25.855Z,69.01
2022-10-13T04:18:59.850Z,69.45
2022-10-13T04:21:27.993Z,69.42
2022-10-13T04:24:00.013Z,68.60
2022-10-13T04:26:31.118Z,68.87
2022-10-13T04:28:57.641Z,69.00
2022-10-13T04:31:25.063Z,69.09
2022-10-13T04:33:51.735Z,69.33
2022-10-13T04:36:19.536Z,68.95
2022-10-13T04:38:46.834Z,68.35
2022-10-13T04:41:16.897Z,68.13
2022-10-13T04:43:44.035Z,68.45
2022-10-13T04:46:16.146Z,68.85
2022-10-13T04:48:42.584Z,69.56
2022-10-13T04:51:14.179Z,69.51
2022-10-13T04:53:41.131Z,69.60
2022-10-13T04:56:12.182Z,69.42
2022-10-13T04:58:40.699Z,69.48
2022-10-13T05:01:16.409Z,69.45
2022-10-13T05:03:45.909Z,70.38
2022-10-13T05:06:18.659Z,69.35
2022-10-13T05:08:45.223Z,69.99
2022-10-13T05:11:11.897Z,69.29
2022-10-13T05:13:38.939Z,68.59
2022-10-13T05:16:11.259Z,68.46
2022-10-13T05:18:37.896Z,69.43
2022-10-13T05:21:23.741Z,69.04
2022-10-13T05:23:54.195Z,69.58
2022-10-13T05:26:21.928Z,69.31
2022-10-13T05:28:49.131Z,69.34
2022-10-13T05:31:25.373Z,68.83
2022-10-13T05:33:53.080Z,69.52
2022-10-13T05:36:34.865Z,69.17
2022-10-13T05:39:05.679Z,68.77
2022-10-13T05:41:32.954Z,68.27
2022-10-13T05:44:09.638Z,68.47
2022-10-13T05:46:36.485Z,69.21
2022-10-13T05:49:04.023Z,69.21
2022-10-13T05:51:54.632Z,68.94
2022-10-13T05:54:55.089Z,68.99
2022-10-13T05:57:32.335Z,69.38
2022-10-13T06:00:08.662Z,68.88
2022-10-13T06:02:59.763Z,68.89
2022-10-13T06:05:28.057Z,69.50
2022-10-13T06:07:55.833Z,69.11
2022-10-13T06:10:23.288Z,68.88
2022-10-13T06:12:49.770Z,69.18
2022-10-13T06:15:16.954Z,69.56
2022-10-13T06:17:43.608Z,69.09
2022-10-13T06:20:10.837Z,69.57
2022-10-13T06:22:39.015Z,69.56
2022-10-13T06:25:07.803Z,69.40
2022-10-13T06:27:34.580Z,68.96
2022-10-13T06:30:01.158Z,68.44
2022-10-13T06:32:27.678Z,68.48
2022-10-13T06:34:54.882Z,68.49
2022-10-13T06:37:26.976Z,68.84
2022-10-13T06:39:53.694Z,68.79
2022-10-13T06:42:20.427Z,69.06
2022-10-13T06:44:47.179Z,68.96
2022-10-13T06:47:13.660Z,68.64
2022-10-13T06:49:40.135Z,67.77
2022-10-13T06:52:06.690Z,67.97
2022-10-13T06:54:33.258Z,68.50
2022-10-13T06:56:59.701Z,68.26
2022-10-13T06:59:27.618Z,68.52
2022-10-13T07:01:54.487Z,68.90
2022-10-13T07:04:20.932Z,68.90
2022-10-13T07:06:47.385Z,69.13
2022-10-13T07:09:14.127Z,69.23
2022-10-13T07:11:45.359Z,68.39
2022-10-13T07:14:12.837Z,68.17
2022-10-13T07:16:39.704Z,68.15
2022-10-13T07:19:06.184Z,67.92
2022-10-13T07:21:32.679Z,68.47
2022-10-13T07:23:59.163Z,68.46
2022-10-13T07:26:25.626Z,68.34
2022-10-13T07:28:52.942Z,67.28
2022-10-13T07:31:21.137Z,67.44
2022-10-13T07:33:51.441Z,67.77
2022-10-13T07:36:19.077Z,67.88
2022-10-13T07:38:46.492Z,68.05
2022-10-13T07:41:14.233Z,68.60
2022-10-13T07:43:41.837Z,69.55
2022-10-13T07:46:08.841Z,69.54
2022-10-13T07:48:36.188Z,69.14
2022-10-13T07:51:08.662Z,68.75
2022-10-13T07:53:35.638Z,69.01
2022-10-13T07:56:04.758Z,68.92
2022-10-13T07:58:31.526Z,69.08
2022-10-13T08:01:00.292Z,68.97
2022-10-13T08:03:28.621Z,68.58
2022-10-13T08:05:58.298Z,68.64
2022-10-13T08:08:24.981Z,68.88
2022-10-13T08:10:51.562Z,68.96
2022-10-13T08:13:18.159Z,69.21
2022-10-13T08:15:46.385Z,69.27
2022-10-13T08:18:14.816Z,69.07
2022-10-13T08:20:44.088Z,68.79
2022-10-13T08:23:12.700Z,69.02
2022-10-13T08:25:41.590Z,69.14
2022-10-13T08:28:21.759Z,69.08
2022-10-13T08:30:50.462Z,68.69
2022-10-13T08:33:17.223Z,68.62
2022-10-13T08:35:43.670Z,68.50
2022-10-13T08:38:10.250Z,68.24
2022-10-13T08:40:38.771Z,68.58
2022-10-13T08:43:08.486Z,68.34
2022-10-13T08:45:41.397Z,68.60
2022-10-13T08:48:37.184Z,68.13
2022-10-13T08:51:07.582Z,68.38
2022-10-13T08:53:39.846Z,68.15
2022-10-13T08:56:22.873Z,68.19
2022-10-13T08:58:51.480Z,68.82
2022-10-13T09:01:49.274Z,68.65
2022-10-13T09:04:36.345Z,68.10
2022-10-13T09:07:10.541Z,67.77
2022-10-13T09:09:38.611Z,68.15
2022-10-13T09:12:06.723Z,68.44
2022-10-13T09:14:37.563Z,68.59
2022-10-13T09:17:26.348Z,68.30
2022-10-13T09:20:20.913Z,68.88
2022-10-13T09:23:26.234Z,68.86
2022-10-13T09:25:53.971Z,68.87
2022-10-13T09:28:29.093Z,68.60
2022-10-13T09:31:17.085Z,68.45
2022-10-13T09:33:45.320Z,68.73
2022-10-13T09:36:15.566Z,68.98
2022-10-13T09:39:05.120Z,68.78
2022-10-13T09:41:33.038Z,68.85
2022-10-13T09:44:11.210Z,68.50
2022-10-13T09:46:52.723Z,68.70
2022-10-13T09:49:37.245Z,68.97
2022-10-13T09:52:19.566Z,68.90
2022-10-13T09:54:49.958Z,69.16
2022-10-13T09:57:28.571Z,69.10
2022-10-13T10:00:14.416Z,68.85
2022-10-13T10:02:52.990Z,68.74
2022-10-13T10:05:25.421Z,68.84
2022-10-13T10:07:52.804Z,68.23
2022-10-13T10:10:34.699Z,67.89
2022-10-13T10:13:02.928Z,67.61
2022-10-13T10:15:56.492Z,67.35
2022-10-13T10:18:48.210Z,67.17
2022-10-13T10:21:45.660Z,67.12
2022-10-13T10:27:45.700Z,66.70
2022-10-13T10:30:19.389Z,66.64
2022-10-13T10:33:10.920Z,66.42
2022-10-13T10:35:55.539Z,66.43
2022-10-13T10:38:27.630Z,65.97
2022-10-13T10:41:20.426Z,65.59
2022-10-13T10:44:02.818Z,65.57
2022-10-13T10:46:36.534Z,65.55
2022-10-13T10:49:19.803Z,65.70
2022-10-13T10:51:46.882Z,65.38
2022-10-13T10:54:33.798Z,64.98
2022-10-13T10:57:25.193Z,64.78
2022-10-13T11:02:59.899Z,65.28
2022-10-13T11:05:56.819Z,64.65
2022-10-13T11:08:49.235Z,64.55
2022-10-13T11:11:34.853Z,64.65
2022-10-13T11:14:06.754Z,64.38
2022-10-13T11:16:39.423Z,64.46
2022-10-13T11:19:31.989Z,64.09
2022-10-13T11:21:58.354Z,64.41
2022-10-13T11:24:33.722Z,63.56
2022-10-13T11:27:10.499Z,64.17
2022-10-13T11:29:49.039Z,63.80
2022-10-13T11:32:27.643Z,62.63
2022-10-13T11:35:05.945Z,63.34
2022-10-13T11:38:07.581Z,63.35
2022-10-13T11:41:03.824Z,62.99
2022-10-13T11:43:57.823Z,62.59
2022-10-13T11:46:46.659Z,62.86
2022-10-13T11:49:52.570Z,62.39
2022-10-13T11:53:06.773Z,61.93
2022-10-13T11:55:56.661Z,62.41
2022-10-13T11:58:31.817Z,62.36
2022-10-13T12:01:07.287Z,62.22
2022-10-13T12:03:37.988Z,62.24
2022-10-13T12:06:34.328Z,61.53
2022-10-13T12:09:17.564Z,61.86
2022-10-13T12:11:44.956Z,61.33
2022-10-13T12:14:50.543Z,60.97
2022-10-13T12:17:26.185Z,61.20
2022-10-13T12:20:00.353Z,61.29
2022-10-13T12:22:28.336Z,61.06
2022-10-13T12:25:05.282Z,61.06
2022-10-13T12:27:46.648Z,61.31
2022-10-13T12:30:36.167Z,61.06
2022-10-13T12:33:20.615Z,61.22
2022-10-13T12:35:47.056Z,61.27
2022-10-13T12:38:22.277Z,60.73
2022-10-13T12:40:51.643Z,61.04
2022-10-13T12:43:27.619Z,60.88
2022-10-13T12:45:54.386Z,61.10
2022-10-13T12:48:38.320Z,60.83
2022-10-13T12:51:25.696Z,61.15
2022-10-13T12:53:52.318Z,61.25
2022-10-13T12:56:28.422Z,60.79
2022-10-13T12:58:56.170Z,60.74
2022-10-13T13:01:30.682Z,60.57
2022-10-13T13:04:16.530Z,60.67
2022-10-13T13:06:59.443Z,60.77
2022-10-13T13:09:38.841Z,59.65
2022-10-13T13:12:08.184Z,61.02
2022-10-13T13:14:51.177Z,61.15
2022-10-13T13:17:27.899Z,61.52
2022-10-13T13:20:31.678Z,61.29
2022-10-13T13:22:58.923Z,61.89
2022-10-13T13:25:25.945Z,62.13
2022-10-13T13:27:53.021Z,62.21
2022-10-13T13:30:23.018Z,62.17
2022-10-13T13:32:50.396Z,62.09
2022-10-13T13:35:17.418Z,62.43
2022-10-13T13:37:50.394Z,62.70
2022-10-13T13:40:20.907Z,62.82
2022-10-13T13:42:48.567Z,63.12
2022-10-13T13:45:17.131Z,63.44
2022-10-13T13:47:44.066Z,63.49
2022-10-13T13:50:26.198Z,63.19
2022-10-13T13:52:52.844Z,63.77
2022-10-13T13:55:19.632Z,64.01
2022-10-13T13:57:46.092Z,64.16
2022-10-13T14:00:16.402Z,64.50
2022-10-13T14:02:44.034Z,64.44
2022-10-13T14:05:12.406Z,64.13
2022-10-13T14:07:40.002Z,64.19
2022-10-13T14:10:08.613Z,63.93
2022-10-13T14:12:35.825Z,63.75
2022-10-13T14:15:02.468Z,63.65
2022-10-13T14:17:30.157Z,63.69
2022-10-13T14:19:56.627Z,64.35
2022-10-13T14:22:23.498Z,64.71
2022-10-13T14:24:52.986Z,64.75
2022-10-13T14:27:19.469Z,64.79
2022-10-13T14:29:45.992Z,64.97
2022-10-13T14:32:12.559Z,65.04
2022-10-13T14:34:39.010Z,64.81
2022-10-13T14:37:05.608Z,64.83
2022-10-13T14:39:32.077Z,65.53
2022-10-13T14:41:58.667Z,65.75
2022-10-13T14:44:25.316Z,66.16
2022-10-13T14:46:51.759Z,66.56
2022-10-13T14:49:18.274Z,67.22
2022-10-13T14:51:44.832Z,67.46
2022-10-13T14:54:11.330Z,67.65
2022-10-13T14:56:38.016Z,67.62
2022-10-13T14:59:07.176Z,67.07
2022-10-13T15:01:34.350Z,67.61
2022-10-13T15:04:02.830Z,67.88
2022-10-13T15:06:29.656Z,67.49
2022-10-13T15:08:57.102Z,67.39
2022-10-13T15:11:25.548Z,67.60
2022-10-13T15:13:53.755Z,68.25
2022-10-13T15:16:23.952Z,68.06
2022-10-13T15:18:51.016Z,68.47
2022-10-13T15:21:18.571Z,68.11
2022-10-13T15:23:45.788Z,67.76
2022-10-13T15:26:15.138Z,67.71
2022-10-13T15:28:45.187Z,67.68
2022-10-13T15:31:13.263Z,67.92
2022-10-13T15:33:44.779Z,68.91
2022-10-13T15:36:11.273Z,69.42
2022-10-13T15:38:37.760Z,70.05
2022-10-13T15:41:05.790Z,69.77
2022-10-13T15:43:32.794Z,69.96
2022-10-13T15:46:10.031Z,69.88
2022-10-13T15:48:36.585Z,70.15
2022-10-13T15:51:13.693Z,69.38
2022-10-13T15:53:40.406Z,69.68
2022-10-13T15:56:08.668Z,69.29
2022-10-13T15:58:35.904Z,69.37
2022-10-13T16:01:08.829Z,69.52
2022-10-13T16:03:36.367Z,69.59
2022-10-13T16:06:06.138Z,69.71
2022-10-13T16:08:35.749Z,69.93
2022-10-13T16:11:08.697Z,69.77
2022-10-13T16:13:35.181Z,70.03
2022-10-13T16:16:01.838Z,70.00
2022-10-13T16:18:31.510Z,69.81
2022-10-13T16:20:58.475Z,70.17
2022-10-13T16:23:26.183Z,70.08
2022-10-13T16:25:53.176Z,70.06
2022-10-13T16:28:19.731Z,70.30
2022-10-13T16:30:46.359Z,70.50
2022-10-13T16:33:12.947Z,70.82
2022-10-13T16:35:39.715Z,70.72
2022-10-13T16:38:06.240Z,70.42
2022-10-13T16:40:32.807Z,70.09
2022-10-13T16:42:59.327Z,70.16
2022-10-13T16:45:41.299Z,69.92
2022-10-13T16:48:12.716Z,70.31
2022-10-13T16:50:39.160Z,70.45
2022-10-13T16:53:05.619Z,70.48
2022-10-13T16:55:32.179Z,70.05
2022-10-13T16:57:58.619Z,70.08
2022-10-13T17:00:25.146Z,70.34
2022-10-13T17:02:51.700Z,70.26
2022-10-13T17:05:18.122Z,70.18
2022-10-13T17:07:44.560Z,70.21
2022-10-13T17:10:11.006Z,70.30
2022-10-13T17:12:37.447Z,70.43
2022-10-13T17:15:04.227Z,70.55
2022-10-13T17:17:30.737Z,70.78
2022-10-13T17:19:57.193Z,70.73
2022-10-13T17:22:23.620Z,70.28
2022-10-13T17:24:50.130Z,70.12
2022-10-13T17:27:16.745Z,70.48
2022-10-13T17:29:43.375Z,70.46
2022-10-13T17:32:09.839Z,69.93
2022-10-13T17:34:36.595Z,70.25
2022-10-13T17:37:05.198Z,70.44
2022-10-13T17:39:31.664Z,70.53
2022-10-13T17:41:58.189Z,70.40
2022-10-13T17:44:24.890Z,70.59
2022-10-13T17:46:51.409Z,70.65
2022-10-13T17:49:18.164Z,70.45
2022-10-13T17:51:45.459Z,70.79
2022-10-13T17:54:15.983Z,70.74
2022-10-13T17:56:43.871Z,70.64
2022-10-13T17:59:10.625Z,70.86
2022-10-13T18:01:38.129Z,70.91
2022-10-13T18:04:17.735Z,71.01
2022-10-13T18:06:44.973Z,71.15
2022-10-13T18:09:15.925Z,70.90
2022-10-13T18:11:49.883Z,70.43
2022-10-13T18:14:22.809Z,70.16
2022-10-13T18:16:51.671Z,70.15
2022-10-13T18:19:18.941Z,70.53
2022-10-13T18:21:45.599Z,70.74
2022-10-13T18:24:12.650Z,70.64
2022-10-13T18:26:39.879Z,70.80
2022-10-13T18:29:08.969Z,70.54
2022-10-13T18:31:37.925Z,70.53
2022-10-13T18:34:10.863Z,70.72
2022-10-13T18:36:44.841Z,70.85
2022-10-13T18:39:15.279Z,70.96
2022-10-13T18:41:42.497Z,70.78
2022-10-13T18:44:09.562Z,70.81
2022-10-13T18:46:38.089Z,70.83
2022-10-13T18:49:07.283Z,71.02
2022-10-13T18:51:36.351Z,71.30
2022-10-13T18:54:05.034Z,71.56
2022-10-13T18:56:33.201Z,71.78
2022-10-13T18:59:01.799Z,71.81
2022-10-13T19:01:33.051Z,71.79
2022-10-13T19:04:00.231Z,71.89
2022-10-13T19:06:30.272Z,71.88
2022-10-13T19:09:17.517Z,71.60
2022-10-13T19:11:44.334Z,71.53
2022-10-13T19:14:12.986Z,71.38
2022-10-13T19:16:42.141Z,71.24
2022-10-13T19:19:09.100Z,71.50
2022-10-13T19:21:38.534Z,71.45
2022-10-13T19:24:06.269Z,71.34
2022-10-13T19:26:35.159Z,71.26
2022-10-13T19:29:10.583Z,71.25
2022-10-13T19:31:39.846Z,71.16
2022-10-13T19:34:06.308Z,71.24
2022-10-13T19:36:39.125Z,71.04
2022-10-13T19:39:23.261Z,71.12
2022-10-13T19:41:51.963Z,71.52
2022-10-13T19:44:19.895Z,72.00
2022-10-13T19:46:47.691Z,71.88
2022-10-13T19:49:17.667Z,71.62
2022-10-13T19:51:45.539Z,71.89
2022-10-13T19:54:13.423Z,72.38
2022-10-13T19:56:39.962Z,71.88
2022-10-13T19:59:06.456Z,71.96
2022-10-13T20:01:40.978Z,71.81
2022-10-13T20:04:08.961Z,71.96
2022-10-13T20:06:36.396Z,71.91
2022-10-13T20:09:04.452Z,71.87
2022-10-13T20:11:30.972Z,71.85
2022-10-13T20:13:57.491Z,71.55
2022-10-13T20:16:25.387Z,71.69
2022-10-13T20:18:56.191Z,72.04
2022-10-13T20:21:24.316Z,72.01
2022-10-13T20:23:52.006Z,71.99
2022-10-13T20:26:19.718Z,72.02
2022-10-13T20:28:49.183Z,71.90
2022-10-13T20:31:19.410Z,71.94
2022-10-13T20:33:47.006Z,72.04
2022-10-13T20:36:17.741Z,71.87
2022-10-13T20:38:44.562Z,71.59
2022-10-13T20:41:26.943Z,71.42
2022-10-13T20:43:57.366Z,71.45
2022-10-13T20:46:24.875Z,71.66
2022-10-13T20:51:41.927Z,71.47
2022-10-13T20:54:10.756Z,71.25
2022-10-13T20:56:37.591Z,71.22
2022-10-13T20:59:07.555Z,71.35
2022-10-13T21:01:35.385Z,71.44
2022-10-13T21:04:01.858Z,71.56
2022-10-13T21:06:28.590Z,71.85
2022-10-13T21:08:55.242Z,72.25
2022-10-13T21:11:23.784Z,72.42
2022-10-13T21:13:52.021Z,72.65
2022-10-13T21:16:28.309Z,72.52
2022-10-13T21:18:57.299Z,72.63
2022-10-13T21:21:29.599Z,72.47
2022-10-13T21:23:59.775Z,72.37
2022-10-13T21:26:29.452Z,72.64
2022-10-13T21:28:56.714Z,72.46
2022-10-13T21:31:25.067Z,72.22
2022-10-13T21:33:51.921Z,72.51
2022-10-13T21:36:22.067Z,72.69
2022-10-13T21:38:53.299Z,72.98
2022-10-13T21:41:20.999Z,72.99
2022-10-13T21:43:47.518Z,73.04
2022-10-13T21:46:18.634Z,72.76
2022-10-13T21:48:47.565Z,72.31
2022-10-13T21:51:24.488Z,72.57
2022-10-13T21:54:00.819Z,72.91
2022-10-13T21:56:28.599Z,72.82
2022-10-13T21:58:55.985Z,72.53
2022-10-13T22:01:24.487Z,72.43
2022-10-13T22:03:57.889Z,72.21
2022-10-13T22:06:25.877Z,72.31
2022-10-13T22:08:55.382Z,72.38
2022-10-13T22:11:25.321Z,72.32
2022-10-13T22:13:52.253Z,72.07
2022-10-13T22:16:23.167Z,71.93
2022-10-13T22:18:55.475Z,72.20
2022-10-13T22:21:27.818Z,72.45
2022-10-13T22:24:06.212Z,72.11
2022-10-13T22:26:36.820Z,72.03
2022-10-13T22:29:05.926Z,71.82
2022-10-13T22:31:33.268Z,71.75
2022-10-13T22:34:01.352Z,72.13
2022-10-13T22:36:28.614Z,72.57
2022-10-13T22:39:00.283Z,72.71
2022-10-13T22:41:26.886Z,72.49
2022-10-13T22:43:57.070Z,72.67
2022-10-13T22:46:31.049Z,72.71
2022-10-13T22:48:58.405Z,73.29
2022-10-13T22:51:28.431Z,73.21
2022-10-13T22:53:56.923Z,73.37
2022-10-13T22:56:27.239Z,73.21
2022-10-13T22:58:57.989Z,73.17
2022-10-13T23:01:25.685Z,73.17
2022-10-13T23:03:56.366Z,72.87
2022-10-13T23:06:27.444Z,73.04
2022-10-13T23:08:55.061Z,72.75
2022-10-13T23:11:22.551Z,72.56
2022-10-13T23:13:49.238Z,72.68
2022-10-13T23:16:23.718Z,72.35
2022-10-13T23:18:51.360Z,72.40
2022-10-13T23:21:20.958Z,71.99
2022-10-13T23:23:47.997Z,72.23
2022-10-13T23:26:17.073Z,72.20
2022-10-13T23:28:44.475Z,72.13
2022-10-13T23:31:15.631Z,72.07
2022-10-13T23:33:42.459Z,72.15
2022-10-13T23:36:14.579Z,72.12
2022-10-13T23:38:41.050Z,72.41
2022-10-13T23:41:13.930Z,72.47
2022-10-13T23:43:41.509Z,72.30
2022-10-13T23:46:10.584Z,71.89
2022-10-13T23:48:37.954Z,72.06
2022-10-13T23:51:17.651Z,71.64
2022-10-13T23:53:44.888Z,71.82
2022-10-13T23:56:12.815Z,71.62
2022-10-13T23:58:42.210Z,72.25
